Time;durP1;ratioP1;P1;durP2;ratioP2;P2;SDS_P1;SDS_P2;PMS_P1;PMS_P2;Temp;Humidity;BMP_temperature;BMP_pressure;BME280_temperature;BME280_humidity;BME280_pressure;Samples;Min_cycle;Max_cycle;Signal;HPM_P1;HPM_P2
2022/10/16 00:01:19;;;;;;;6.60;3.58;;;;;;;;;;5090372;28;20036;-87
2022/10/16 00:03:52;;;;;;;6.88;3.88;;;;;;;;;;5093127;28;20487;-88
2022/10/16 00:06:26;;;;;;;6.10;3.60;;;;;;;;;;5076230;28;20047;-87
2022/10/16 00:08:59;;;;;;;7.38;3.92;;;;;;;;;;5083314;28;20047;-87
2022/10/16 00:11:36;;;;;;;7.57;3.47;;;;;;;;;;5090352;28;20035;-86
2022/10/16 00:14:05;;;;;;;5.97;3.30;;;;;;;;;;5090689;28;20063;-86
2022/10/16 00:16:38;;;;;;;7.80;3.75;;;;;;;;;;5081351;28;20048;-86
2022/10/16 00:19:12;;;;;;;5.05;3.25;;;;;;;;;;5083216;28;20044;-87
2022/10/16 00:21:44;;;;;;;5.78;3.67;;;;;;;;;;5072463;28;20049;-86
2022/10/16 00:24:17;;;;;;;11.90;3.63;;;;;;;;;;5070789;28;20071;-86
2022/10/16 00:26:52;;;;;;;6.63;3.67;;;;;;;;;;5083844;28;20543;-87
2022/10/16 00:29:25;;;;;;;5.90;3.42;;;;;;;;;;5095384;28;20409;-86
2022/10/16 00:31:52;;;;;;;6.47;3.47;;;;;;;;;;5087307;28;20040;-85
2022/10/16 00:34:25;;;;;;;5.60;2.97;;;;;;;;;;5085593;28;20045;-87
2022/10/16 00:36:58;;;;;;;5.88;3.30;;;;;;;;;;5084233;28;20048;-86
2022/10/16 00:39:31;;;;;;;5.70;3.38;;;;;;;;;;5098841;28;20728;-86
2022/10/16 00:42:05;;;;;;;5.35;2.97;;;;;;;;;;5083638;28;20048;-85
2022/10/16 00:44:43;;;;;;;7.22;3.40;;;;;;;;;;5087175;28;20051;-87
2022/10/16 00:47:18;;;;;;;7.20;3.10;;;;;;;;;;5085403;28;20048;-85
2022/10/16 00:49:52;;;;;;;5.00;3.05;;;;;;;;;;5085920;28;20047;-86
2022/10/16 00:52:20;;;;;;;4.20;2.72;;;;;;;;;;5081980;28;20500;-86
2022/10/16 00:54:48;;;;;;;9.00;3.20;;;;;;;;;;5083938;28;20048;-87
2022/10/16 00:57:18;;;;;;;5.72;3.10;;;;;;;;;;5082517;28;20048;-86
2022/10/16 00:59:46;;;;;;;5.72;3.25;;;;;;;;;;5085415;28;20048;-86
2022/10/16 01:02:18;;;;;;;6.80;2.85;;;;;;;;;;5084005;28;20044;-86
2022/10/16 01:04:48;;;;;;;4.30;2.83;;;;;;;;;;5073044;28;20048;-85
2022/10/16 01:07:25;;;;;;;4.93;2.60;;;;;;;;;;5079792;28;20044;-86
2022/10/16 01:09:59;;;;;;;;;;;;;;;;;;5095983;28;20051;-86
2022/10/16 01:12:33;;;;;;;5.38;3.10;;;;;;;;;;5073715;28;19924;-86
2022/10/16 01:15:09;;;;;;;4.38;2.83;;;;;;;;;;5082301;28;20041;-86
2022/10/16 01:17:44;;;;;;;4.63;2.88;;;;;;;;;;5076771;28;20048;-86
2022/10/16 01:20:22;;;;;;;4.32;2.88;;;;;;;;;;5080226;28;20526;-86
2022/10/16 01:22:54;;;;;;;;;;;;;;;;;;5080291;28;20059;-85
2022/10/16 01:25:26;;;;;;;7.07;2.65;;;;;;;;;;5081364;28;19931;-83
2022/10/16 01:27:56;;;;;;;4.82;2.72;;;;;;;;;;5093813;28;20040;-86
2022/10/16 01:30:31;;;;;;;4.63;2.53;;;;;;;;;;5072894;28;20052;-86
2022/10/16 01:33:08;;;;;;;7.53;3.03;;;;;;;;;;5083666;28;20053;-87
2022/10/16 01:35:38;;;;;;;7.25;2.83;;;;;;;;;;5075335;28;20044;-87
2022/10/16 01:38:13;;;;;;;3.83;2.50;;;;;;;;;;5080192;28;20048;-86
2022/10/16 01:40:45;;;;;;;4.35;2.58;;;;;;;;;;5090679;28;20043;-86
2022/10/16 01:43:21;;;;;;;5.07;2.72;;;;;;;;;;5097578;28;20052;-86
2022/10/16 01:45:54;;;;;;;6.32;2.53;;;;;;;;;;5082155;28;20048;-86
2022/10/16 01:48:23;;;;;;;5.47;2.88;;;;;;;;;;5094822;28;20055;-86
2022/10/16 01:50:54;;;;;;;6.63;3.08;;;;;;;;;;5076904;28;20044;-86
2022/10/16 01:53:23;;;;;;;6.70;2.88;;;;;;;;;;5092235;28;20056;-86
2022/10/16 01:55:56;;;;;;;4.78;2.90;;;;;;;;;;5081424;28;20051;-85
2022/10/16 01:58:26;;;;;;;6.05;2.78;;;;;;;;;;5084718;28;20056;-86
2022/10/16 02:00:59;;;;;;;5.47;2.42;;;;;;;;;;5099463;28;20046;-85
2022/10/16 02:03:32;;;;;;;5.32;2.33;;;;;;;;;;5083886;28;20047;-86
2022/10/16 02:06:00;;;;;;;3.92;2.15;;;;;;;;;;5079129;28;20063;-87
2022/10/16 02:08:33;;;;;;;4.78;2.38;;;;;;;;;;5079879;28;20043;-86
2022/10/16 02:11:06;;;;;;;5.03;2.05;;;;;;;;;;5069628;28;20366;-86
2022/10/16 02:13:44;;;;;;;3.03;2.03;;;;;;;;;;5083106;28;20047;-86
2022/10/16 02:16:13;;;;;;;4.18;2.22;;;;;;;;;;5089836;28;20409;-86
2022/10/16 02:18:46;;;;;;;5.10;2.30;;;;;;;;;;5092776;28;20480;-86
2022/10/16 02:21:21;;;;;;;5.70;2.13;;;;;;;;;;5089236;28;20048;-87
2022/10/16 02:23:58;;;;;;;6.82;2.30;;;;;;;;;;5083507;28;20396;-86
2022/10/16 02:26:35;;;;;;;4.72;1.90;;;;;;;;;;5091311;28;20051;-88
2022/10/16 02:29:07;;;;;;;3.30;2.03;;;;;;;;;;5101511;28;20048;-87
2022/10/16 02:31:36;;;;;;;2.40;1.73;;;;;;;;;;5081668;28;20055;-86
2022/10/16 02:34:11;;;;;;;7.45;1.92;;;;;;;;;;5082140;28;20066;-86
2022/10/16 02:36:39;;;;;;;3.80;1.98;;;;;;;;;;5085499;28;20079;-86
2022/10/16 02:39:07;;;;;;;4.10;1.45;;;;;;;;;;5088366;28;20056;-86
2022/10/16 02:41:40;;;;;;;3.95;1.60;;;;;;;;;;5087897;28;20044;-85
2022/10/16 02:44:14;;;;;;;5.03;1.70;;;;;;;;;;5092225;28;20468;-85
2022/10/16 02:46:47;;;;;;;2.65;1.65;;;;;;;;;;5086995;28;20041;-86
2022/10/16 02:49:15;;;;;;;2.47;1.63;;;;;;;;;;5088245;28;20051;-86
2022/10/16 02:51:47;;;;;;;3.65;1.58;;;;;;;;;;5083580;28;20532;-87
2022/10/16 02:54:20;;;;;;;4.70;1.60;;;;;;;;;;5079524;28;20057;-86
2022/10/16 02:56:53;;;;;;;3.95;1.90;;;;;;;;;;5088706;28;20044;-86
2022/10/16 02:59:22;;;;;;;1.70;1.35;;;;;;;;;;5088068;28;20056;-87
2022/10/16 03:01:55;;;;;;;4.68;1.77;;;;;;;;;;5090486;28;20125;-85
2022/10/16 03:04:28;;;;;;;4.05;1.70;;;;;;;;;;5078377;28;20044;-85
2022/10/16 03:07:01;;;;;;;2.75;1.40;;;;;;;;;;5080893;28;20055;-87
2022/10/16 03:09:34;;;;;;;3.08;1.60;;;;;;;;;;5081457;28;20039;-85
2022/10/16 03:12:07;;;;;;;3.95;1.40;;;;;;;;;;5094155;28;20396;-85
2022/10/16 03:14:41;;;;;;;3.55;1.35;;;;;;;;;;5087790;28;20674;-86
2022/10/16 03:17:16;;;;;;;5.28;1.73;;;;;;;;;;5087588;28;20565;-85
2022/10/16 03:19:44;;;;;;;2.95;1.20;;;;;;;;;;5079641;28;20044;-86
2022/10/16 03:22:12;;;;;;;3.08;1.20;;;;;;;;;;5079096;28;20059;-85
2022/10/16 03:24:44;;;;;;;2.65;1.25;;;;;;;;;;5087516;28;20047;-86
2022/10/16 03:27:17;;;;;;;1.55;1.20;;;;;;;;;;5088338;28;20053;-85
2022/10/16 03:29:51;;;;;;;3.53;1.35;;;;;;;;;;5073495;28;20061;-86
2022/10/16 03:32:19;;;;;;;1.33;1.13;;;;;;;;;;5075198;28;20840;-87
2022/10/16 03:34:54;;;;;;;5.03;1.20;;;;;;;;;;5083200;28;20374;-85
2022/10/16 03:37:27;;;;;;;6.60;1.67;;;;;;;;;;5072591;28;20048;-85
2022/10/16 03:40:00;;;;;;;1.60;1.15;;;;;;;;;;5086614;28;20060;-86
2022/10/16 03:42:32;;;;;;;3.55;1.23;;;;;;;;;;5074732;28;20404;-86
2022/10/16 03:45:07;;;;;;;3.88;1.25;;;;;;;;;;5102396;28;20052;-86
2022/10/16 03:47:35;;;;;;;2.08;1.23;;;;;;;;;;5111782;28;20058;-86
2022/10/16 03:50:08;;;;;;;2.65;1.38;;;;;;;;;;5113966;28;20055;-87
2022/10/16 03:52:41;;;;;;;2.08;1.20;;;;;;;;;;5089097;28;20547;-85
2022/10/16 03:55:13;;;;;;;2.78;1.17;;;;;;;;;;5088010;28;20058;-86
2022/10/16 03:57:46;;;;;;;3.25;1.33;;;;;;;;;;5089349;28;20051;-86
2022/10/16 04:00:20;;;;;;;1.92;1.08;;;;;;;;;;5099227;28;20049;-86
2022/10/16 04:02:53;;;;;;;1.45;1.00;;;;;;;;;;5097228;28;20502;-87
2022/10/16 04:05:26;;;;;;;1.58;1.02;;;;;;;;;;5087708;28;20054;-85
2022/10/16 04:07:58;;;;;;;6.35;1.17;;;;;;;;;;5076983;28;20682;-87
2022/10/16 04:10:26;;;;;;;1.92;1.20;;;;;;;;;;5075529;28;20044;-86
2022/10/16 04:12:59;;;;;;;4.18;1.30;;;;;;;;;;5079563;28;20536;-85
2022/10/16 04:15:28;;;;;;;1.52;1.10;;;;;;;;;;5087696;28;20390;-85
2022/10/16 04:18:01;;;;;;;2.53;1.10;;;;;;;;;;5084640;28;20063;-86
2022/10/16 04:20:29;;;;;;;2.80;1.30;;;;;;;;;;5082159;28;20043;-86
2022/10/16 04:23:02;;;;;;;5.07;1.50;;;;;;;;;;5078824;28;20052;-85
2022/10/16 04:25:35;;;;;;;2.67;1.15;;;;;;;;;;5084661;28;20047;-86
2022/10/16 04:28:08;;;;;;;3.80;1.33;;;;;;;;;;5078681;28;20051;-85
2022/10/16 04:30:42;;;;;;;5.38;1.27;;;;;;;;;;5089747;28;20055;-85
2022/10/16 04:33:15;;;;;;;2.22;1.10;;;;;;;;;;5074452;28;20048;-85
2022/10/16 04:35:47;;;;;;;3.10;1.40;;;;;;;;;;5076260;28;20055;-87
2022/10/16 04:38:20;;;;;;;2.55;1.17;;;;;;;;;;5082450;28;20045;-87
2022/10/16 04:40:53;;;;;;;1.45;0.95;;;;;;;;;;5086741;28;20456;-83
2022/10/16 04:43:26;;;;;;;2.38;1.20;;;;;;;;;;5094118;28;20045;-86
2022/10/16 04:45:56;;;;;;;1.63;1.00;;;;;;;;;;5084403;28;20495;-86
2022/10/16 04:48:28;;;;;;;1.70;1.00;;;;;;;;;;5078529;28;20055;-86
2022/10/16 04:51:01;;;;;;;3.88;1.30;;;;;;;;;;5085785;28;20497;-84
2022/10/16 04:53:34;;;;;;;1.25;1.10;;;;;;;;;;5074220;28;20046;-85
2022/10/16 04:56:07;;;;;;;2.92;1.15;;;;;;;;;;5075153;28;20041;-85
2022/10/16 04:58:35;;;;;;;2.20;1.35;;;;;;;;;;5083609;28;20052;-86
2022/10/16 05:01:09;;;;;;;5.13;1.40;;;;;;;;;;5071129;28;20052;-86
2022/10/16 05:03:36;;;;;;;5.93;1.20;;;;;;;;;;5072334;28;20036;-85
2022/10/16 05:06:09;;;;;;;2.45;1.00;;;;;;;;;;5081686;28;20051;-86
2022/10/16 05:08:42;;;;;;;3.63;1.20;;;;;;;;;;5075712;28;20051;-86
2022/10/16 05:11:15;;;;;;;2.72;1.40;;;;;;;;;;5087678;28;20059;-86
2022/10/16 05:13:47;;;;;;;1.10;1.00;;;;;;;;;;5085011;28;20044;-86
2022/10/16 05:16:21;;;;;;;5.07;1.48;;;;;;;;;;5084069;28;20404;-85
2022/10/16 05:18:54;;;;;;;1.60;1.20;;;;;;;;;;5083043;28;20064;-84
2022/10/16 05:21:27;;;;;;;2.33;1.20;;;;;;;;;;5076074;28;20041;-83
2022/10/16 05:23:55;;;;;;;4.13;1.40;;;;;;;;;;5078848;28;20037;-85
2022/10/16 05:26:28;;;;;;;3.58;1.27;;;;;;;;;;5077466;28;20055;-85
2022/10/16 05:28:55;;;;;;;5.88;1.60;;;;;;;;;;5091662;28;20044;-87
2022/10/16 05:31:25;;;;;;;7.57;1.58;;;;;;;;;;5085656;28;20453;-86
2022/10/16 05:33:59;;;;;;;3.67;1.65;;;;;;;;;;5077056;28;20048;-85
2022/10/16 05:36:31;;;;;;;3.42;1.40;;;;;;;;;;5077106;28;20052;-86
2022/10/16 05:39:04;;;;;;;2.13;1.27;;;;;;;;;;5076668;28;20052;-84
2022/10/16 05:41:37;;;;;;;2.30;1.38;;;;;;;;;;5083498;28;20063;-85
2022/10/16 05:44:10;;;;;;;4.35;1.40;;;;;;;;;;5083502;28;20488;-85
2022/10/16 05:46:44;;;;;;;4.82;1.48;;;;;;;;;;5079258;28;20050;-84
2022/10/16 05:49:12;;;;;;;2.83;1.40;;;;;;;;;;5084077;28;20523;-85
2022/10/16 05:51:44;;;;;;;3.35;1.50;;;;;;;;;;5082856;28;20551;-86
2022/10/16 05:54:17;;;;;;;3.95;1.30;;;;;;;;;;5081104;28;20413;-84
2022/10/16 05:56:50;;;;;;;3.35;1.52;;;;;;;;;;5084372;28;20051;-84
2022/10/16 05:59:23;;;;;;;2.83;1.42;;;;;;;;;;5087075;28;20040;-84
2022/10/16 06:01:57;;;;;;;2.25;1.15;;;;;;;;;;5081217;28;20505;-83
2022/10/16 06:04:30;;;;;;;5.55;1.23;;;;;;;;;;5092853;28;20044;-84
2022/10/16 06:07:02;;;;;;;7.55;1.17;;;;;;;;;;5092169;28;20071;-86
2022/10/16 06:09:35;;;;;;;11.52;1.50;;;;;;;;;;5085831;28;20052;-85
2022/10/16 06:12:08;;;;;;;2.88;1.42;;;;;;;;;;5083403;28;20501;-85
2022/10/16 06:14:41;;;;;;;2.05;1.30;;;;;;;;;;5083162;28;20063;-85
2022/10/16 06:17:15;;;;;;;2.95;1.70;;;;;;;;;;5095233;28;20048;-83
2022/10/16 06:19:43;;;;;;;5.80;1.55;;;;;;;;;;5082948;28;20599;-85
2022/10/16 06:22:11;;;;;;;1.50;1.02;;;;;;;;;;5085322;28;20044;-83
2022/10/16 06:24:39;;;;;;;2.65;1.40;;;;;;;;;;5080588;28;20049;-84
2022/10/16 06:27:06;;;;;;;3.28;1.30;;;;;;;;;;5083533;28;20056;-84
2022/10/16 06:29:34;;;;;;;4.18;1.80;;;;;;;;;;5082121;28;20049;-86
2022/10/16 06:32:07;;;;;;;4.75;1.40;;;;;;;;;;5094942;28;20047;-85
2022/10/16 06:34:36;;;;;;;2.75;1.30;;;;;;;;;;5094752;28;20428;-83
2022/10/16 06:37:04;;;;;;;3.22;1.33;;;;;;;;;;5083990;28;20045;-85
2022/10/16 06:39:36;;;;;;;3.20;1.50;;;;;;;;;;5072912;28;20056;-85
2022/10/16 06:42:09;;;;;;;4.22;1.77;;;;;;;;;;5074385;28;20091;-84
2022/10/16 06:44:37;;;;;;;3.45;1.25;;;;;;;;;;5072128;28;20477;-85
2022/10/16 06:47:04;;;;;;;2.72;1.35;;;;;;;;;;5077503;28;20051;-85
2022/10/16 06:49:39;;;;;;;2.13;1.20;;;;;;;;;;5096273;28;20480;-85
2022/10/16 06:52:11;;;;;;;4.53;1.23;;;;;;;;;;5088535;28;20059;-85
2022/10/16 06:54:39;;;;;;;4.25;1.60;;;;;;;;;;5088579;28;20377;-85
2022/10/16 06:57:12;;;;;;;4.65;1.23;;;;;;;;;;5074076;28;20057;-86
2022/10/16 06:59:45;;;;;;;1.95;1.27;;;;;;;;;;5079453;28;20484;-85
2022/10/16 07:02:18;;;;;;;2.03;1.10;;;;;;;;;;5091334;28;20044;-84
2022/10/16 07:04:52;;;;;;;2.05;1.30;;;;;;;;;;5085265;28;20044;-85
2022/10/16 07:07:20;;;;;;;1.92;1.30;;;;;;;;;;5079031;28;20056;-85
2022/10/16 07:09:53;;;;;;;2.28;1.40;;;;;;;;;;5090554;28;20066;-85
2022/10/16 07:12:26;;;;;;;8.30;1.50;;;;;;;;;;5090166;28;20483;-85
2022/10/16 07:14:59;;;;;;;4.75;1.48;;;;;;;;;;5080260;28;20040;-86
2022/10/16 07:17:32;;;;;;;7.43;1.48;;;;;;;;;;5081388;28;20051;-86
2022/10/16 07:20:06;;;;;;;4.30;1.55;;;;;;;;;;5081767;28;20040;-83
2022/10/16 07:22:39;;;;;;;8.25;1.98;;;;;;;;;;5081258;28;20067;-86
2022/10/16 07:25:12;;;;;;;1.98;1.20;;;;;;;;;;5075797;28;20059;-85
2022/10/16 07:27:45;;;;;;;3.05;1.70;;;;;;;;;;5086933;28;20056;-86
2022/10/16 07:30:17;;;;;;;7.57;2.15;;;;;;;;;;5076449;28;20500;-87
2022/10/16 07:32:45;;;;;;;2.90;1.60;;;;;;;;;;5089820;28;20063;-84
2022/10/16 07:35:14;;;;;;;3.72;1.80;;;;;;;;;;5076333;28;20063;-86
2022/10/16 07:37:47;;;;;;;4.72;1.88;;;;;;;;;;5072932;28;20051;-87
2022/10/16 07:40:20;;;;;;;3.65;1.70;;;;;;;;;;5083791;28;20055;-84
2022/10/16 07:42:53;;;;;;;4.03;1.73;;;;;;;;;;5075467;28;20550;-85
2022/10/16 07:45:26;;;;;;;3.85;1.80;;;;;;;;;;5081828;28;20044;-85
2022/10/16 07:47:54;;;;;;;3.80;1.65;;;;;;;;;;5088352;28;20045;-85
2022/10/16 07:50:23;;;;;;;3.17;1.45;;;;;;;;;;5079525;28;20092;-84
2022/10/16 07:52:51;;;;;;;3.70;1.70;;;;;;;;;;5085084;28;20048;-86
2022/10/16 07:55:23;;;;;;;3.60;1.70;;;;;;;;;;5081233;28;20044;-86
2022/10/16 07:57:56;;;;;;;4.00;1.52;;;;;;;;;;5077105;28;20044;-85
2022/10/16 08:00:27;;;;;;;2.10;1.48;;;;;;;;;;5078003;28;20051;-86
2022/10/16 08:02:59;;;;;;;4.68;1.50;;;;;;;;;;5086288;28;20037;-81
2022/10/16 08:05:29;;;;;;;3.55;1.70;;;;;;;;;;5085464;28;20044;-81
2022/10/16 08:07:57;;;;;;;1.83;1.40;;;;;;;;;;5077306;28;20056;-85
2022/10/16 08:10:26;;;;;;;3.88;1.65;;;;;;;;;;5083650;28;20054;-87
2022/10/16 08:12:59;;;;;;;3.88;1.55;;;;;;;;;;5076204;28;20052;-85
2022/10/16 08:15:27;;;;;;;4.20;1.63;;;;;;;;;;5083987;28;20055;-86
2022/10/16 08:18:01;;;;;;;4.07;1.73;;;;;;;;;;5083947;28;20049;-85
2022/10/16 08:20:35;;;;;;;2.78;1.52;;;;;;;;;;5080160;28;20052;-84
2022/10/16 08:23:08;;;;;;;3.03;1.60;;;;;;;;;;5079867;28;20394;-84
2022/10/16 08:25:41;;;;;;;1.60;1.20;;;;;;;;;;5081469;28;20041;-84
2022/10/16 08:28:13;;;;;;;4.80;1.90;;;;;;;;;;5077417;28;20056;-85
2022/10/16 08:30:46;;;;;;;2.30;1.40;;;;;;;;;;5078994;28;20405;-85
2022/10/16 08:33:19;;;;;;;3.67;1.50;;;;;;;;;;5075956;28;20041;-84
2022/10/16 08:35:54;;;;;;;2.85;1.60;;;;;;;;;;5077049;28;20055;-84
2022/10/16 08:38:21;;;;;;;2.70;1.60;;;;;;;;;;5081489;28;20045;-87
2022/10/16 08:40:57;;;;;;;2.95;1.30;;;;;;;;;;5076538;28;20056;-83
2022/10/16 08:43:34;;;;;;;1.95;1.33;;;;;;;;;;5084972;28;20059;-84
2022/10/16 08:46:22;;;;;;;3.08;1.20;;;;;;;;;;5079458;28;20374;-86
2022/10/16 08:48:55;;;;;;;5.78;1.25;;;;;;;;;;5080974;28;20044;-86
2022/10/16 08:51:31;;;;;;;2.55;1.33;;;;;;;;;;5076957;28;20059;-86
2022/10/16 08:54:05;;;;;;;5.22;1.70;;;;;;;;;;5079626;28;20051;-87
2022/10/16 08:56:33;;;;;;;4.03;1.40;;;;;;;;;;5081966;28;20048;-85
2022/10/16 08:59:01;;;;;;;5.47;1.30;;;;;;;;;;5081494;28;20063;-86
2022/10/16 09:01:38;;;;;;;1.90;1.35;;;;;;;;;;5089383;28;20044;-86
2022/10/16 09:04:22;;;;;;;3.42;1.10;;;;;;;;;;5091959;28;20418;-87
2022/10/16 09:06:58;;;;;;;6.35;1.65;;;;;;;;;;5082787;28;20055;-84
2022/10/16 09:09:49;;;;;;;4.38;1.30;;;;;;;;;;5081528;28;20055;-84
2022/10/16 09:12:24;;;;;;;1.33;1.17;;;;;;;;;;5078181;28;20055;-85
2022/10/16 09:15:02;;;;;;;1.85;1.20;;;;;;;;;;5082724;28;20049;-87
2022/10/16 09:17:37;;;;;;;1.70;1.20;;;;;;;;;;5083936;28;20036;-86
2022/10/16 09:20:14;;;;;;;2.38;1.40;;;;;;;;;;5080614;28;20056;-86
2022/10/16 09:22:43;;;;;;;2.92;1.00;;;;;;;;;;5080045;28;20040;-87
2022/10/16 09:25:17;;;;;;;3.08;1.30;;;;;;;;;;5082107;28;20045;-87
2022/10/16 09:27:53;;;;;;;1.70;1.20;;;;;;;;;;5090492;28;20055;-87
2022/10/16 09:30:29;;;;;;;3.70;1.20;;;;;;;;;;5079635;28;20048;-85
2022/10/16 09:33:02;;;;;;;2.63;1.50;;;;;;;;;;5084728;28;20051;-83
2022/10/16 09:35:37;;;;;;;2.22;1.23;;;;;;;;;;5092733;28;20403;-86
2022/10/16 09:38:21;;;;;;;2.20;1.13;;;;;;;;;;5084656;28;20047;-86
2022/10/16 09:40:54;;;;;;;2.65;1.23;;;;;;;;;;5085607;28;20382;-85
2022/10/16 09:43:24;;;;;;;5.13;1.10;;;;;;;;;;5084010;28;20045;-88
2022/10/16 09:45:56;;;;;;;2.75;1.17;;;;;;;;;;5085329;28;20056;-83
2022/10/16 09:48:32;;;;;;;5.55;1.65;;;;;;;;;;5092937;28;20067;-85
2022/10/16 09:51:06;;;;;;;2.63;1.33;;;;;;;;;;5081162;28;20055;-86
2022/10/16 09:53:40;;;;;;;1.10;1.00;;;;;;;;;;5078103;28;20037;-83
2022/10/16 09:56:22;;;;;;;2.28;1.25;;;;;;;;;;5093142;28;20519;-83
2022/10/16 09:58:51;;;;;;;2.00;1.20;;;;;;;;;;5082634;28;20051;-86
2022/10/16 10:01:19;;;;;;;4.10;1.30;;;;;;;;;;5084762;28;20409;-88
2022/10/16 10:04:00;;;;;;;1.85;1.10;;;;;;;;;;5079430;28;20487;-85
2022/10/16 10:06:34;;;;;;;2.33;1.38;;;;;;;;;;5081819;28;20047;-85
2022/10/16 10:09:15;;;;;;;2.70;1.15;;;;;;;;;;5080827;28;20055;-87
2022/10/16 10:11:52;;;;;;;4.03;1.23;;;;;;;;;;5076157;28;20044;-87
2022/10/16 10:14:27;;;;;;;4.07;1.10;;;;;;;;;;5089644;28;20533;-88
2022/10/16 10:17:03;;;;;;;2.17;1.20;;;;;;;;;;5087207;28;20055;-85
2022/10/16 10:19:38;;;;;;;3.38;1.08;;;;;;;;;;5082320;28;20059;-86
2022/10/16 10:22:17;;;;;;;2.33;1.00;;;;;;;;;;5081913;28;20044;-83
2022/10/16 10:24:55;;;;;;;2.25;0.95;;;;;;;;;;5082540;28;20048;-84
2022/10/16 10:27:33;;;;;;;6.13;1.10;;;;;;;;;;5080469;28;20051;-85
2022/10/16 10:30:12;;;;;;;1.67;0.82;;;;;;;;;;5084845;28;20052;-84
2022/10/16 10:32:50;;;;;;;5.53;1.60;;;;;;;;;;5082819;28;20485;-85
2022/10/16 10:35:22;;;;;;;3.38;1.17;;;;;;;;;;5081826;28;20036;-85
2022/10/16 10:38:03;;;;;;;4.07;0.90;;;;;;;;;;5084249;28;20041;-83
2022/10/16 10:40:45;;;;;;;3.67;0.90;;;;;;;;;;5076601;28;20051;-84
2022/10/16 10:43:31;;;;;;;3.95;1.02;;;;;;;;;;5079726;28;20048;-85
2022/10/16 10:46:05;;;;;;;3.97;0.90;;;;;;;;;;5085196;28;20744;-85
2022/10/16 10:48:56;;;;;;;2.85;1.00;;;;;;;;;;5077871;28;20059;-84
2022/10/16 10:51:31;;;;;;;2.17;0.90;;;;;;;;;;5076863;28;20400;-85
2022/10/16 10:54:11;;;;;;;2.60;1.08;;;;;;;;;;5081278;28;20492;-86
2022/10/16 10:56:45;;;;;;;2.95;0.88;;;;;;;;;;5082060;28;20049;-84
2022/10/16 10:59:42;;;;;;;3.95;1.00;;;;;;;;;;5076308;28;20049;-85
2022/10/16 11:02:15;;;;;;;;;;;;;;;;;;5069300;28;20056;-84
2022/10/16 11:04:58;;;;;;;2.90;0.80;;;;;;;;;;5082208;28;19920;-84
2022/10/16 11:07:33;;;;;;;1.08;0.80;;;;;;;;;;5081525;28;20400;-83
2022/10/16 11:10:04;;;;;;;1.20;0.90;;;;;;;;;;5079071;28;20416;-86
2022/10/16 11:12:41;;;;;;;1.17;0.80;;;;;;;;;;5081888;28;20053;-84
2022/10/16 11:15:13;;;;;;;2.58;0.90;;;;;;;;;;5078654;28;20040;-84
2022/10/16 11:17:48;;;;;;;3.75;1.10;;;;;;;;;;5068563;28;20059;-84
2022/10/16 11:20:23;;;;;;;2.67;0.80;;;;;;;;;;5082811;28;20059;-84
2022/10/16 11:22:58;;;;;;;2.65;0.93;;;;;;;;;;5081124;28;20044;-83
2022/10/16 11:25:32;;;;;;;1.92;0.90;;;;;;;;;;5079877;28;20948;-84
2022/10/16 11:28:11;;;;;;;2.92;0.70;;;;;;;;;;5086412;28;20053;-84
2022/10/16 11:30:45;;;;;;;1.85;0.77;;;;;;;;;;5081907;28;20056;-82
2022/10/16 11:33:24;;;;;;;1.85;0.60;;;;;;;;;;5061220;28;20059;-84
2022/10/16 11:36:00;;;;;;;5.10;0.90;;;;;;;;;;5071056;28;20452;-82
2022/10/16 11:38:35;;;;;;;1.50;0.70;;;;;;;;;;5051143;28;20047;-85
2022/10/16 11:41:12;;;;;;;5.68;0.73;;;;;;;;;;5045188;28;20052;-83
2022/10/16 11:43:51;;;;;;;1.92;0.77;;;;;;;;;;5055583;28;20052;-82
2022/10/16 11:46:25;;;;;;;4.00;0.70;;;;;;;;;;5052635;28;20052;-82
2022/10/16 11:48:56;;;;;;;2.28;0.68;;;;;;;;;;5057094;28;20043;-82
2022/10/16 11:51:28;;;;;;;2.08;0.60;;;;;;;;;;5048143;28;20053;-83
2022/10/16 11:54:05;;;;;;;3.42;0.73;;;;;;;;;;5048354;28;20055;-83
2022/10/16 11:56:36;;;;;;;1.25;0.60;;;;;;;;;;5046534;28;20059;-82
2022/10/16 11:59:08;;;;;;;5.57;0.90;;;;;;;;;;5049463;28;20048;-82
2022/10/16 12:01:43;;;;;;;1.77;0.73;;;;;;;;;;5051994;28;20044;-83
2022/10/16 12:04:19;;;;;;;2.78;0.95;;;;;;;;;;5051209;28;20051;-83
2022/10/16 12:06:49;;;;;;;4.00;0.95;;;;;;;;;;5050613;28;20048;-83
2022/10/16 12:09:24;;;;;;;2.17;0.80;;;;;;;;;;5060066;28;20052;-81
2022/10/16 12:11:58;;;;;;;5.25;0.90;;;;;;;;;;5045876;28;20658;-84
2022/10/16 12:14:42;;;;;;;4.20;1.05;;;;;;;;;;5052702;28;20048;-86
2022/10/16 12:17:26;;;;;;;4.82;0.90;;;;;;;;;;5049987;28;20060;-82
2022/10/16 12:20:00;;;;;;;3.47;0.90;;;;;;;;;;5059056;28;20068;-84
2022/10/16 12:22:33;;;;;;;3.78;0.70;;;;;;;;;;5047558;28;20052;-84
2022/10/16 12:25:01;;;;;;;6.95;1.00;;;;;;;;;;5048544;28;20056;-84
2022/10/16 12:27:30;;;;;;;2.55;0.70;;;;;;;;;;5061202;28;20048;-84
2022/10/16 12:30:06;;;;;;;3.05;0.60;;;;;;;;;;5062856;28;20044;-82
2022/10/16 12:32:40;;;;;;;3.03;0.90;;;;;;;;;;5055934;28;20514;-81
2022/10/16 12:35:19;;;;;;;5.75;0.80;;;;;;;;;;5054555;28;20842;-84
2022/10/16 12:37:52;;;;;;;1.98;0.93;;;;;;;;;;5057953;28;20052;-84
2022/10/16 12:40:27;;;;;;;3.17;0.88;;;;;;;;;;5056085;28;20516;-83
2022/10/16 12:43:11;;;;;;;4.93;0.70;;;;;;;;;;5057839;28;20056;-84
2022/10/16 12:45:46;;;;;;;6.45;1.33;;;;;;;;;;5048873;28;20063;-82
2022/10/16 12:48:21;;;;;;;2.60;0.80;;;;;;;;;;5050185;28;20052;-82
2022/10/16 12:50:54;;;;;;;3.60;0.90;;;;;;;;;;5051641;28;20052;-83
2022/10/16 12:53:22;;;;;;;1.80;0.90;;;;;;;;;;5054883;28;20060;-83
2022/10/16 12:55:58;;;;;;;5.70;0.80;;;;;;;;;;5057442;28;20059;-84
2022/10/16 12:58:43;;;;;;;8.43;1.02;;;;;;;;;;5058432;28;20056;-84
2022/10/16 13:01:18;;;;;;;7.88;1.10;;;;;;;;;;5060948;28;20052;-84
2022/10/16 13:04:02;;;;;;;2.58;0.98;;;;;;;;;;5054554;28;20078;-82
2022/10/16 13:06:34;;;;;;;4.32;0.95;;;;;;;;;;5051519;28;20052;-84
2022/10/16 13:09:17;;;;;;;4.32;0.90;;;;;;;;;;5050017;28;20795;-82
2022/10/16 13:12:17;;;;;;;1.65;0.70;;;;;;;;;;5049506;28;20052;-82
2022/10/16 13:15:03;;;;;;;1.20;0.73;;;;;;;;;;5015130;28;20428;-83
2022/10/16 13:17:40;;;;;;;6.55;0.88;;;;;;;;;;5058190;28;20053;-83
2022/10/16 13:20:13;;;;;;;4.60;1.00;;;;;;;;;;5051810;28;21493;-82
2022/10/16 13:22:52;;;;;;;2.65;0.93;;;;;;;;;;5046075;28;20055;-82
2022/10/16 13:25:32;;;;;;;3.05;1.10;;;;;;;;;;5055014;28;20064;-84
2022/10/16 13:28:07;;;;;;;2.70;1.05;;;;;;;;;;5055967;28;20056;-82
2022/10/16 13:30:36;;;;;;;4.70;1.20;;;;;;;;;;5057016;28;20060;-82
2022/10/16 13:33:08;;;;;;;5.85;1.00;;;;;;;;;;5058053;28;20059;-84
2022/10/16 13:35:37;;;;;;;3.50;0.73;;;;;;;;;;5048412;28;20064;-83
2022/10/16 13:38:13;;;;;;;3.42;1.13;;;;;;;;;;5052894;28;20056;-85
2022/10/16 13:40:50;;;;;;;9.00;1.17;;;;;;;;;;5058094;28;20085;-82
2022/10/16 13:43:18;;;;;;;2.63;1.05;;;;;;;;;;5061260;28;20301;-85
2022/10/16 13:45:55;;;;;;;1.70;0.80;;;;;;;;;;5058397;28;20052;-84
2022/10/16 13:48:29;;;;;;;3.33;0.80;;;;;;;;;;5061573;28;20052;-85
2022/10/16 13:51:03;;;;;;;3.65;1.02;;;;;;;;;;5051574;28;20063;-84
2022/10/16 13:53:36;;;;;;;5.13;1.00;;;;;;;;;;5046754;28;20052;-84
2022/10/16 13:56:11;;;;;;;1.30;0.80;;;;;;;;;;5049079;28;20068;-83
2022/10/16 13:58:45;;;;;;;1.88;0.82;;;;;;;;;;5047380;28;20049;-84
2022/10/16 14:01:20;;;;;;;3.40;1.10;;;;;;;;;;5051351;28;20567;-81
2022/10/16 14:04:01;;;;;;;4.03;1.20;;;;;;;;;;5052019;28;20055;-82
2022/10/16 14:06:29;;;;;;;5.57;1.45;;;;;;;;;;5047293;28;20063;-83
2022/10/16 14:09:01;;;;;;;5.68;1.30;;;;;;;;;;5052534;28;20052;-82
2022/10/16 14:11:35;;;;;;;2.42;0.80;;;;;;;;;;5040543;28;20516;-87
2022/10/16 14:14:10;;;;;;;5.18;1.30;;;;;;;;;;5062256;28;20543;-87
2022/10/16 14:16:44;;;;;;;5.03;0.93;;;;;;;;;;5063118;28;20045;-84
2022/10/16 14:19:21;;;;;;;6.40;1.25;;;;;;;;;;5059113;28;20048;-84
2022/10/16 14:21:54;;;;;;;;;;;;;;;;;;5054961;28;20465;-85
2022/10/16 14:24:26;;;;;;;2.38;1.10;;;;;;;;;;5054083;28;19928;-82
2022/10/16 14:26:59;;;;;;;;;;;;;;;;;;5057395;28;20053;-86
2022/10/16 14:29:32;;;;;;;2.80;1.02;;;;;;;;;;5058856;28;19928;-83
2022/10/16 14:32:00;;;;;;;3.42;0.90;;;;;;;;;;5065140;28;20063;-83
2022/10/16 14:34:35;;;;;;;3.08;0.93;;;;;;;;;;5059783;28;21039;-85
2022/10/16 14:37:09;;;;;;;8.65;1.02;;;;;;;;;;5058519;28;20056;-85
2022/10/16 14:39:42;;;;;;;7.47;1.00;;;;;;;;;;5054104;28;20421;-86
2022/10/16 14:42:17;;;;;;;4.90;1.00;;;;;;;;;;5056803;28;20052;-82
2022/10/16 14:44:52;;;;;;;2.55;1.00;;;;;;;;;;5052860;28;20052;-84
2022/10/16 14:47:26;;;;;;;2.45;0.90;;;;;;;;;;5049012;28;20063;-82
2022/10/16 14:49:58;;;;;;;12.45;1.20;;;;;;;;;;5058752;28;20048;-82
2022/10/16 14:52:31;;;;;;;5.30;1.33;;;;;;;;;;5050324;28;20829;-83
2022/10/16 14:55:04;;;;;;;2.90;1.00;;;;;;;;;;5052941;28;20048;-82
2022/10/16 14:57:34;;;;;;;5.70;1.10;;;;;;;;;;5056858;28;20051;-82
2022/10/16 15:00:02;;;;;;;6.35;1.20;;;;;;;;;;5058727;28;20052;-84
2022/10/16 15:02:31;;;;;;;3.35;1.00;;;;;;;;;;5052044;28;20044;-85
2022/10/16 15:05:11;;;;;;;5.75;1.30;;;;;;;;;;5053852;28;20064;-83
2022/10/16 15:07:45;;;;;;;5.13;1.23;;;;;;;;;;5055438;28;20040;-82
2022/10/16 15:10:13;;;;;;;4.28;1.50;;;;;;;;;;5059969;28;20052;-85
2022/10/16 15:12:46;;;;;;;3.53;1.25;;;;;;;;;;5046677;28;20048;-82
2022/10/16 15:15:33;;;;;;;6.05;1.20;;;;;;;;;;5048689;28;20072;-83
2022/10/16 15:18:06;;;;;;;5.80;1.02;;;;;;;;;;5049431;28;20064;-83
2022/10/16 15:20:36;;;;;;;6.20;1.85;;;;;;;;;;5059295;28;20055;-83
2022/10/16 15:23:06;;;;;;;3.05;1.05;;;;;;;;;;5052771;28;20063;-82